Time;durP1;ratioP1;P1;durP2;ratioP2;P2;SDS_P1;SDS_P2;PMS_P1;PMS_P2;Temp;Humidity;BMP_temperature;BMP_pressure;BME280_temperature;BME280_humidity;BME280_pressure;Samples;Min_cycle;Max_cycle;Signal;HPM_P1;HPM_P2
2021/06/01 00:01:32;;;;;;;4.93;3.87;;;14.60;69.40;;;;;;5057619;28;20214;-82
2021/06/01 00:03:59;;;;;;;7.20;4.10;;;14.60;69.70;;;;;;5037386;28;20211;-82
2021/06/01 00:06:27;;;;;;;8.13;4.23;;;14.60;69.80;;;;;;5037449;28;20222;-83
2021/06/01 00:08:55;;;;;;;4.33;3.90;;;14.60;70.00;;;;;;5037640;28;20722;-82
2021/06/01 00:11:24;;;;;;;7.53;3.90;;;14.60;70.10;;;;;;5037209;28;20276;-82
2021/06/01 00:13:52;;;;;;;12.90;4.33;;;14.50;70.20;;;;;;5037233;28;20220;-82
2021/06/01 00:16:19;;;;;;;8.00;4.47;;;14.50;70.20;;;;;;5036964;28;20820;-83
2021/06/01 00:18:47;;;;;;;4.60;4.20;;;14.50;70.30;;;;;;5048398;28;20210;-82
2021/06/01 00:21:15;;;;;;;6.23;4.17;;;14.50;70.50;;;;;;5056299;28;20309;-82
2021/06/01 00:23:43;;;;;;;5.60;4.53;;;14.40;70.50;;;;;;5055688;28;20254;-83
2021/06/01 00:26:11;;;;;;;8.60;4.20;;;14.40;70.50;;;;;;5039650;28;20210;-82
2021/06/01 00:28:40;;;;;;;5.60;4.07;;;14.40;70.50;;;;;;5056832;28;20241;-83
2021/06/01 00:31:09;;;;;;;6.13;3.83;;;14.40;70.50;;;;;;5053790;28;20626;-82
2021/06/01 00:33:38;;;;;;;7.17;4.10;;;14.40;70.60;;;;;;5036481;28;20214;-82
2021/06/01 00:36:18;;;;;;;13.23;4.60;;;14.40;70.70;;;;;;5019559;28;20211;-82
2021/06/01 00:38:46;;;;;;;10.27;5.10;;;14.40;71.00;;;;;;5036835;28;20199;-83
2021/06/01 00:41:13;;;;;;;5.70;4.53;;;14.40;70.90;;;;;;5019461;28;20211;-82
2021/06/01 00:43:40;;;;;;;9.73;4.47;;;14.40;70.90;;;;;;5050264;28;20238;-82
2021/06/01 00:46:08;;;;;;;7.07;4.37;;;14.40;70.90;;;;;;5037835;28;20222;-83
2021/06/01 00:48:35;;;;;;;4.73;3.97;;;14.50;71.40;;;;;;5035457;28;20215;-83
2021/06/01 00:51:03;;;;;;;5.60;3.47;;;14.40;71.70;;;;;;5035976;28;20643;-83
2021/06/01 00:53:33;;;;;;;9.50;4.20;;;14.30;71.90;;;;;;5050365;28;20272;-82
2021/06/01 00:56:00;;;;;;;6.93;3.97;;;14.30;72.10;;;;;;5055654;28;20333;-82
2021/06/01 00:58:39;;;;;;;9.60;4.03;;;14.20;72.10;;;;;;5055218;28;20317;-83
2021/06/01 01:03:39;;;;;;;4.30;3.90;;;14.20;72.40;;;;;;5065664;28;20245;-82
2021/06/01 01:06:18;;;;;;;6.10;4.90;;;14.20;72.70;;;;;;5039011;28;20191;-83
2021/06/01 01:08:53;;;;;;;7.37;5.00;;;14.10;72.60;;;;;;5040847;28;20271;-83
2021/06/01 01:11:31;;;;;;;4.97;4.47;;;14.10;72.70;;;;;;5018869;28;20626;-82
2021/06/01 01:14:22;;;;;;;4.20;3.77;;;14.10;72.90;;;;;;5018755;28;20190;-82
2021/06/01 01:17:17;;;;;;;4.97;3.93;;;14.00;72.80;;;;;;4976816;28;20221;-82
2021/06/01 01:20:09;;;;;;;4.23;3.83;;;14.00;73.10;;;;;;4994810;28;20204;-83
2021/06/01 01:22:41;;;;;;;10.27;4.80;;;14.00;73.50;;;;;;5010887;28;20242;-82
2021/06/01 01:25:19;;;;;;;5.47;3.90;;;14.00;73.50;;;;;;4994563;28;20558;-82
2021/06/01 01:28:10;;;;;;;11.23;5.57;;;14.00;73.90;;;;;;4995618;28;20247;-83
2021/06/01 01:30:40;;;;;;;9.30;4.30;;;14.00;73.70;;;;;;4975418;28;20311;-83
2021/06/01 01:33:20;;;;;;;20.60;5.40;;;14.00;73.70;;;;;;4975615;28;20216;-83
2021/06/01 01:35:53;;;;;;;9.40;4.13;;;14.00;73.90;;;;;;5001532;28;20215;-82
2021/06/01 01:38:22;;;;;;;5.47;4.67;;;13.90;73.90;;;;;;5014818;28;20814;-82
2021/06/01 01:40:51;;;;;;;6.83;5.40;;;13.90;74.10;;;;;;5014427;28;20215;-83
2021/06/01 01:43:24;;;;;;;6.70;5.00;;;13.90;74.30;;;;;;5013200;28;20235;-83
2021/06/01 01:46:01;;;;;;;6.80;5.27;;;13.90;75.20;;;;;;5008993;28;20255;-83
2021/06/01 01:49:14;;;;;;;7.17;5.67;;;13.90;74.80;;;;;;4991666;28;20274;-83
2021/06/01 01:51:24;;;;;;;7.87;4.60;;;13.90;75.10;;;;;;4987138;28;20217;-83
2021/06/01 01:53:54;;;;;;;8.67;5.17;;;13.90;75.40;;;;;;5016568;28;20210;-82
2021/06/01 01:56:23;;;;;;;6.37;5.27;;;13.80;75.40;;;;;;5042631;28;20217;-82
2021/06/01 01:58:52;;;;;;;7.40;5.07;;;13.80;75.70;;;;;;5041052;28;20210;-82
2021/06/01 02:01:20;;;;;;;5.27;4.73;;;13.70;75.90;;;;;;5061285;28;20249;-82
2021/06/01 02:03:50;;;;;;;7.10;5.23;;;13.70;76.30;;;;;;5075242;28;20256;-83
2021/06/01 02:06:17;;;;;;;6.07;4.90;;;13.70;76.40;;;;;;5068919;28;20634;-82
2021/06/01 02:08:44;;;;;;;6.97;5.17;;;13.60;76.30;;;;;;5055561;28;20244;-83
2021/06/01 02:11:12;;;;;;;8.83;5.33;;;13.60;76.10;;;;;;5045319;28;20702;-83
2021/06/01 02:14:07;;;;;;;7.10;5.27;;;13.60;75.90;;;;;;5055335;28;20297;-83
2021/06/01 02:16:37;;;;;;;6.50;5.53;;;13.50;76.00;;;;;;5055554;28;20253;-83
2021/06/01 02:19:05;;;;;;;6.73;5.87;;;13.40;76.10;;;;;;5027218;28;20205;-83
2021/06/01 02:24:27;;;;;;;9.20;5.03;;;13.40;76.30;;;;;;5053464;28;20202;-82
2021/06/01 02:27:14;;;;;;;10.87;5.63;;;13.40;76.40;;;;;;5057707;28;20209;-82
2021/06/01 02:30:15;;;;;;;4.50;4.03;;;13.40;76.50;;;;;;5057877;28;20519;-82
2021/06/01 02:32:52;;;;;;;5.03;4.60;;;13.40;76.50;;;;;;5013366;28;20543;-82
2021/06/01 02:35:28;;;;;;;7.23;5.50;;;13.40;76.60;;;;;;5035428;28;20743;-82
2021/06/01 02:38:00;;;;;;;5.40;4.90;;;13.30;76.80;;;;;;5065226;28;20763;-82
2021/06/01 02:40:29;;;;;;;8.33;5.60;;;13.30;77.10;;;;;;5052215;28;20234;-82
2021/06/01 02:43:00;;;;;;;5.83;5.23;;;13.30;77.40;;;;;;5061879;28;20573;-82
2021/06/01 02:45:28;;;;;;;8.60;5.60;;;13.30;77.70;;;;;;5075609;28;20194;-83
2021/06/01 02:47:56;;;;;;;9.40;5.30;;;13.30;77.60;;;;;;5042158;28;20277;-82
2021/06/01 02:50:24;;;;;;;6.93;6.03;;;13.20;77.50;;;;;;5055536;28;20255;-82
2021/06/01 02:52:52;;;;;;;8.50;5.13;;;13.10;78.00;;;;;;5037848;28;20214;-83
2021/06/01 02:55:21;;;;;;;5.77;5.13;;;13.10;78.30;;;;;;5055382;28;20234;-82
2021/06/01 02:57:48;;;;;;;6.23;5.40;;;13.10;78.60;;;;;;5037375;28;20457;-82
2021/06/01 03:00:22;;;;;;;6.27;5.03;;;13.00;78.60;;;;;;5065542;28;20210;-82
2021/06/01 03:02:50;;;;;;;5.80;4.73;;;13.00;78.70;;;;;;5055529;28;20648;-82
2021/06/01 03:05:19;;;;;;;5.73;5.07;;;13.00;78.80;;;;;;5058639;28;20568;-82
2021/06/01 03:07:56;;;;;;;11.23;5.00;;;13.00;78.70;;;;;;5038874;28;20231;-82
2021/06/01 03:10:24;;;;;;;5.53;5.03;;;13.00;78.80;;;;;;5037951;28;20647;-82
2021/06/01 03:13:00;;;;;;;5.30;4.63;;;12.90;78.90;;;;;;5056685;28;20213;-82
2021/06/01 03:15:28;;;;;;;7.10;5.00;;;12.80;79.10;;;;;;5021482;28;20203;-82
2021/06/01 03:17:55;;;;;;;6.20;4.23;;;12.80;79.30;;;;;;5038307;28;20211;-82
2021/06/01 03:20:22;;;;;;;12.10;5.30;;;12.70;79.20;;;;;;5054970;28;20249;-82
2021/06/01 03:22:50;;;;;;;5.97;4.60;;;12.70;79.30;;;;;;5041001;28;20340;-82
2021/06/01 03:25:18;;;;;;;8.03;5.73;;;12.70;79.50;;;;;;5041158;28;20214;-82
2021/06/01 03:27:47;;;;;;;8.53;5.77;;;12.70;79.50;;;;;;5071975;28;20240;-82
2021/06/01 03:30:15;;;;;;;6.17;5.57;;;12.60;79.90;;;;;;5063265;28;20684;-82
2021/06/01 03:32:43;;;;;;;6.40;5.17;;;12.60;80.10;;;;;;5040949;28;20206;-82
2021/06/01 03:35:13;;;;;;;7.83;4.60;;;12.70;80.10;;;;;;5040814;28;20215;-82
2021/06/01 03:37:40;;;;;;;7.57;5.27;;;12.60;80.00;;;;;;5055803;28;20218;-82
2021/06/01 03:40:08;;;;;;;7.87;5.10;;;12.60;80.00;;;;;;5074452;28;20222;-82
2021/06/01 03:42:38;;;;;;;7.53;5.33;;;12.60;80.10;;;;;;5048719;28;20245;-82
2021/06/01 03:45:07;;;;;;;7.50;5.27;;;12.60;79.90;;;;;;5028734;28;20248;-82
2021/06/01 03:47:34;;;;;;;7.70;5.30;;;12.50;80.50;;;;;;5060242;28;20210;-82
2021/06/01 03:50:01;;;;;;;5.73;5.13;;;12.50;80.00;;;;;;5077739;28;20264;-82
2021/06/01 03:52:33;;;;;;;8.93;5.13;;;12.50;80.20;;;;;;5041455;28;20301;-82
2021/06/01 03:55:00;;;;;;;5.70;5.10;;;12.40;80.30;;;;;;5052429;28;20259;-82
2021/06/01 03:57:28;;;;;;;6.80;6.10;;;12.40;80.50;;;;;;5077469;28;20656;-82
2021/06/01 04:00:06;;;;;;;7.43;6.30;;;12.40;80.80;;;;;;5051560;28;20215;-82
2021/06/01 04:02:33;;;;;;;7.13;6.43;;;12.40;81.00;;;;;;5065178;28;20328;-82
2021/06/01 04:05:01;;;;;;;7.10;6.27;;;12.50;81.10;;;;;;5057478;28;20260;-82
2021/06/01 04:07:29;;;;;;;6.27;5.70;;;12.50;81.10;;;;;;5040312;28;20252;-82
2021/06/01 04:09:56;;;;;;;5.23;4.73;;;12.60;81.20;;;;;;5057491;28;20300;-82
2021/06/01 04:12:24;;;;;;;5.27;4.40;;;12.60;80.90;;;;;;5063557;28;20576;-82
2021/06/01 04:14:51;;;;;;;6.63;5.67;;;12.60;80.40;;;;;;5077487;28;20209;-82
2021/06/01 04:17:18;;;;;;;6.27;5.67;;;12.70;80.60;;;;;;5060271;28;20267;-82
2021/06/01 04:19:46;;;;;;;8.60;6.70;;;12.80;80.80;;;;;;5060039;28;20217;-82
2021/06/01 04:22:13;;;;;;;7.43;6.37;;;12.90;80.60;;;;;;5042714;28;20210;-82
2021/06/01 04:24:41;;;;;;;8.37;6.67;;;13.00;80.60;;;;;;5038434;28;20261;-82
2021/06/01 04:27:08;;;;;;;7.17;6.57;;;13.10;80.40;;;;;;5057536;28;20256;-82
2021/06/01 04:29:36;;;;;;;10.97;5.97;;;13.20;80.10;;;;;;5039657;28;20293;-82
2021/06/01 04:32:03;;;;;;;7.67;5.83;;;13.40;79.90;;;;;;5060245;28;20210;-82
2021/06/01 04:34:40;;;;;;;7.40;5.70;;;13.50;80.20;;;;;;5061689;28;20214;-82
2021/06/01 04:37:07;;;;;;;6.50;5.90;;;13.60;79.10;;;;;;5040095;28;20270;-82
2021/06/01 04:39:34;;;;;;;7.60;6.17;;;13.80;78.60;;;;;;5056598;28;20218;-82
2021/06/01 04:42:01;;;;;;;7.07;6.27;;;13.90;78.10;;;;;;5039935;28;20203;-82
2021/06/01 04:44:29;;;;;;;7.50;6.00;;;14.00;77.60;;;;;;5039415;28;20279;-82
2021/06/01 04:46:59;;;;;;;6.97;6.27;;;14.20;77.20;;;;;;5057009;28;20238;-81
2021/06/01 04:49:26;;;;;;;6.50;5.60;;;14.30;76.80;;;;;;5054793;28;20622;-82
2021/06/01 04:51:54;;;;;;;9.13;6.70;;;14.40;76.30;;;;;;5059609;28;20548;-82
2021/06/01 04:54:21;;;;;;;6.90;6.13;;;14.50;76.00;;;;;;5059195;28;20206;-82
2021/06/01 04:56:49;;;;;;;7.83;5.70;;;14.70;76.10;;;;;;5019181;28;20215;-83
2021/06/01 04:59:16;;;;;;;9.40;7.27;;;14.90;75.50;;;;;;5052486;28;20219;-82
2021/06/01 05:01:44;;;;;;;7.20;6.50;;;15.10;74.90;;;;;;5075960;28;20673;-82
2021/06/01 05:04:11;;;;;;;9.20;6.60;;;15.30;74.60;;;;;;5076138;28;20707;-82
2021/06/01 05:06:39;;;;;;;7.33;6.57;;;15.50;74.40;;;;;;5071984;28;20213;-82
2021/06/01 05:09:07;;;;;;;8.50;7.40;;;15.60;74.10;;;;;;5058584;28;20205;-82
2021/06/01 05:11:34;;;;;;;8.57;6.67;;;15.70;73.90;;;;;;5065676;28;20214;-83
2021/06/01 05:14:01;;;;;;;10.53;6.53;;;15.70;73.60;;;;;;5055486;28;20210;-82
2021/06/01 05:16:28;;;;;;;9.37;7.23;;;15.90;73.20;;;;;;5055695;28;20638;-82
2021/06/01 05:18:56;;;;;;;9.30;7.43;;;16.00;73.10;;;;;;5056443;28;20214;-82
2021/06/01 05:21:23;;;;;;;8.13;7.30;;;16.10;73.20;;;;;;5041904;28;20207;-82
2021/06/01 05:23:50;;;;;;;9.67;7.40;;;16.20;72.90;;;;;;5046299;28;20261;-82
2021/06/01 05:26:18;;;;;;;7.63;6.93;;;16.30;72.70;;;;;;5059719;28;20638;-82
2021/06/01 05:28:45;;;;;;;7.87;7.07;;;16.60;72.60;;;;;;5052273;28;20233;-82
2021/06/01 05:31:26;;;;;;;9.70;6.30;;;16.90;72.00;;;;;;5076878;28;20257;-82
2021/06/01 05:33:56;;;;;;;8.80;7.17;;;17.30;71.10;;;;;;5076432;28;20210;-81
2021/06/01 05:36:24;;;;;;;7.17;6.47;;;17.70;70.00;;;;;;5075867;28;20209;-82
2021/06/01 05:38:51;;;;;;;7.90;7.00;;;17.90;68.80;;;;;;5075799;28;20230;-82
2021/06/01 05:41:19;;;;;;;8.17;6.33;;;18.20;68.10;;;;;;5057986;28;20212;-82
2021/06/01 05:43:47;;;;;;;7.50;6.70;;;18.50;67.40;;;;;;5074681;28;20296;-82
2021/06/01 05:46:14;;;;;;;9.00;7.53;;;18.60;66.50;;;;;;5069435;28;20636;-82
2021/06/01 05:48:43;;;;;;;10.83;7.50;;;18.60;66.10;;;;;;5054996;28;20217;-82
2021/06/01 05:51:11;;;;;;;8.10;7.27;;;18.70;66.30;;;;;;5062450;28;20214;-82
2021/06/01 05:53:39;;;;;;;8.87;7.17;;;18.80;66.40;;;;;;5050824;28;20232;-82
2021/06/01 05:56:06;;;;;;;11.00;7.20;;;19.00;66.50;;;;;;5053957;28;20213;-82
2021/06/01 05:58:34;;;;;;;12.23;7.17;;;19.10;65.90;;;;;;5042457;28;20272;-82
2021/06/01 06:01:01;;;;;;;6.90;5.90;;;19.20;65.20;;;;;;5065864;28;20856;-83
2021/06/01 06:03:29;;;;;;;8.27;7.47;;;19.30;65.50;;;;;;5051492;28;20258;-82
2021/06/01 06:05:56;;;;;;;7.80;7.00;;;19.40;65.00;;;;;;5036180;28;20222;-82
2021/06/01 06:08:24;;;;;;;9.80;6.77;;;19.50;65.20;;;;;;5045300;28;20264;-82
2021/06/01 06:10:51;;;;;;;12.03;6.67;;;19.70;63.90;;;;;;5038022;28;20264;-82
2021/06/01 06:13:19;;;;;;;6.70;6.00;;;19.80;63.60;;;;;;5055792;28;20210;-82
2021/06/01 06:15:46;;;;;;;7.93;7.13;;;19.90;62.80;;;;;;5042630;28;20211;-82
2021/06/01 06:18:22;;;;;;;8.20;6.57;;;20.10;63.30;;;;;;5046920;28;20226;-81
2021/06/01 06:20:50;;;;;;;5.57;5.00;;;20.30;62.60;;;;;;5055731;28;20218;-82
2021/06/01 06:23:17;;;;;;;8.13;5.57;;;20.50;61.30;;;;;;5050175;28;20325;-83
2021/06/01 06:25:45;;;;;;;5.93;5.00;;;20.60;59.70;;;;;;5048893;28;20541;-82
2021/06/01 06:28:14;;;;;;;9.60;5.37;;;20.70;59.10;;;;;;5038302;28;20202;-82
2021/06/01 06:30:41;;;;;;;6.17;5.30;;;20.80;58.70;;;;;;5007727;28;20569;-82
2021/06/01 06:33:08;;;;;;;6.77;4.90;;;20.90;58.10;;;;;;5035725;28;20211;-82
2021/06/01 06:35:35;;;;;;;6.53;5.13;;;20.90;57.80;;;;;;5036612;28;20218;-83
2021/06/01 06:38:03;;;;;;;5.70;4.60;;;21.10;57.40;;;;;;5013349;28;20218;-83
2021/06/01 06:40:30;;;;;;;6.17;4.90;;;21.30;57.20;;;;;;5038383;28;20218;-81
2021/06/01 06:42:58;;;;;;;4.90;4.33;;;21.40;57.10;;;;;;5055084;28;20225;-83
2021/06/01 06:45:25;;;;;;;7.23;4.27;;;21.60;56.80;;;;;;5055518;28;20230;-82
2021/06/01 06:50:22;;;;;;;4.60;3.60;;;22.10;56.60;;;;;;5042085;28;20207;-83
2021/06/01 06:52:51;;;;;;;4.80;4.23;;;22.40;54.40;;;;;;5024333;28;20269;-82
2021/06/01 06:55:19;;;;;;;4.40;3.70;;;22.50;53.60;;;;;;5025997;28;20218;-82
2021/06/01 06:57:47;;;;;;;4.80;3.60;;;22.70;53.50;;;;;;5040398;28;20716;-82
2021/06/01 07:00:21;;;;;;;3.50;3.20;;;22.90;52.60;;;;;;5047567;28;20855;-82
2021/06/01 07:02:48;;;;;;;4.23;3.23;;;23.00;52.10;;;;;;5038980;28;20321;-82
2021/06/01 07:05:19;;;;;;;6.17;3.53;;;23.10;52.20;;;;;;5016718;28;20238;-83
2021/06/01 07:07:51;;;;;;;3.43;3.00;;;23.30;51.80;;;;;;5002619;28;20208;-83
2021/06/01 07:10:20;;;;;;;5.33;3.43;;;23.50;51.50;;;;;;5008917;28;20207;-81
2021/06/01 07:12:47;;;;;;;5.37;2.70;;;23.70;51.40;;;;;;5017465;28;20934;-82
2021/06/01 07:15:24;;;;;;;3.10;2.90;;;24.00;51.20;;;;;;5017754;28;20204;-82
2021/06/01 07:17:58;;;;;;;5.70;3.40;;;24.20;50.00;;;;;;5001204;28;20219;-82
2021/06/01 07:20:30;;;;;;;2.93;2.70;;;24.40;48.20;;;;;;5001735;28;20231;-82
2021/06/01 07:22:59;;;;;;;5.10;2.40;;;24.50;48.40;;;;;;5017332;28;20195;-82
2021/06/01 07:25:26;;;;;;;4.13;2.17;;;24.60;47.30;;;;;;5016471;28;20675;-82
2021/06/01 07:27:54;;;;;;;2.93;1.80;;;24.80;48.10;;;;;;5015709;28;20636;-82
2021/06/01 07:30:23;;;;;;;3.53;1.90;;;24.90;45.50;;;;;;5017127;28;20664;-81
2021/06/01 07:32:50;;;;;;;3.80;1.93;;;25.00;43.90;;;;;;5016935;28;20303;-83
2021/06/01 07:35:21;;;;;;;3.97;1.70;;;25.20;43.20;;;;;;5009540;28;20283;-82
2021/06/01 07:37:49;;;;;;;1.87;1.70;;;25.30;42.30;;;;;;5017299;28;20302;-83
2021/06/01 07:40:17;;;;;;;2.20;1.60;;;25.40;42.20;;;;;;5017109;28;20212;-82
2021/06/01 07:42:44;;;;;;;2.03;1.60;;;25.50;42.90;;;;;;5016852;28;20282;-83
2021/06/01 07:45:13;;;;;;;2.03;1.50;;;25.60;40.70;;;;;;5000821;28;20305;-82
2021/06/01 07:47:40;;;;;;;6.30;2.00;;;25.70;41.20;;;;;;5016692;28;20239;-82
2021/06/01 07:50:10;;;;;;;2.27;1.90;;;25.70;41.50;;;;;;5031901;28;20214;-82
2021/06/01 07:52:38;;;;;;;1.77;1.67;;;25.90;41.00;;;;;;5027837;28;20223;-83
2021/06/01 07:55:06;;;;;;;3.83;1.50;;;25.90;40.20;;;;;;5038652;28;20235;-83
2021/06/01 07:57:36;;;;;;;1.97;1.77;;;25.90;40.00;;;;;;5021361;28;20579;-83
2021/06/01 08:00:09;;;;;;;4.07;1.80;;;25.90;40.10;;;;;;5019355;28;20199;-82
2021/06/01 08:02:37;;;;;;;1.50;1.40;;;26.00;41.20;;;;;;5038095;28;20238;-83
2021/06/01 08:05:05;;;;;;;3.63;1.70;;;26.20;41.10;;;;;;5047764;28;20229;-83
2021/06/01 08:07:33;;;;;;;3.40;1.30;;;26.30;41.30;;;;;;5052142;28;20225;-83
2021/06/01 08:10:05;;;;;;;1.80;1.67;;;26.30;40.70;;;;;;5037966;28;20717;-82
2021/06/01 08:12:34;;;;;;;2.03;1.43;;;26.40;40.50;;;;;;5059358;28;20220;-82
2021/06/01 08:15:03;;;;;;;3.13;1.50;;;26.50;40.10;;;;;;5060768;28;20214;-82
2021/06/01 08:17:31;;;;;;;2.37;1.50;;;26.60;40.40;;;;;;5036339;28;20245;-82
2021/06/01 08:20:09;;;;;;;5.20;1.60;;;26.70;40.90;;;;;;5021090;28;20207;-83
2021/06/01 08:22:38;;;;;;;3.60;1.70;;;26.90;40.80;;;;;;5066243;28;20221;-83
2021/06/01 08:25:06;;;;;;;1.70;1.60;;;27.10;39.10;;;;;;5052670;28;20238;-81
2021/06/01 08:27:34;;;;;;;2.27;1.53;;;27.20;38.60;;;;;;5077899;28;20293;-82
2021/06/01 08:30:05;;;;;;;1.97;1.50;;;27.20;38.50;;;;;;5057305;28;20630;-84
2021/06/01 08:32:32;;;;;;;1.50;1.40;;;27.20;36.60;;;;;;5040296;28;20206;-83
2021/06/01 08:35:00;;;;;;;1.40;1.30;;;27.10;36.20;;;;;;5044679;28;20219;-82
2021/06/01 08:37:27;;;;;;;1.40;1.30;;;27.00;37.20;;;;;;5048605;28;20317;-83
2021/06/01 08:39:54;;;;;;;1.67;1.30;;;27.20;36.20;;;;;;5039977;28;20301;-82
2021/06/01 08:42:23;;;;;;;0.97;0.93;;;27.30;36.80;;;;;;5067693;28;20225;-81
2021/06/01 08:44:51;;;;;;;3.90;1.77;;;27.50;37.20;;;;;;5070825;28;20566;-83
2021/06/01 08:47:20;;;;;;;1.00;1.00;;;27.70;36.40;;;;;;5054765;28;20217;-82
2021/06/01 08:49:48;;;;;;;1.30;1.20;;;27.80;34.60;;;;;;5060013;28;20205;-82
2021/06/01 08:52:16;;;;;;;3.23;1.33;;;27.80;34.60;;;;;;5058499;28;20259;-82
2021/06/01 08:54:47;;;;;;;3.33;1.50;;;27.80;34.80;;;;;;5039754;28;20276;-83
2021/06/01 08:57:15;;;;;;;1.37;1.27;;;27.90;36.40;;;;;;5041019;28;20215;-83
2021/06/01 08:59:42;;;;;;;3.50;1.20;;;28.00;35.30;;;;;;5057770;28;20228;-83
2021/06/01 09:02:10;;;;;;;1.63;1.10;;;27.90;35.00;;;;;;5074139;28;20543;-85
2021/06/01 09:05:01;;;;;;;4.00;1.23;;;27.70;34.90;;;;;;5053068;28;20260;-82
2021/06/01 09:07:55;;;;;;;1.37;1.27;;;27.40;35.20;;;;;;5046239;28;20246;-85
2021/06/01 09:10:32;;;;;;;2.40;1.20;;;27.30;35.60;;;;;;5019814;28;20214;-85
2021/06/01 09:19:51;;;;;;;1.07;1.00;;;27.50;35.60;;;;;;5048409;28;20275;-83
2021/06/01 09:21:29;;;;;;;3.00;1.10;;;28.00;33.60;;;;;;5070862;28;20209;-83
2021/06/01 09:24:01;;;;;;;1.87;1.00;;;28.10;33.80;;;;;;5048289;28;20202;-83
2021/06/01 09:29:35;;;;;;;0.90;0.90;;;28.40;31.60;;;;;;5000030;28;20223;-83
2021/06/01 09:32:06;;;;;;;4.93;1.10;;;28.50;32.20;;;;;;4998502;28;20219;-82
2021/06/01 09:34:40;;;;;;;1.43;0.87;;;28.60;32.70;;;;;;4998392;28;20203;-84
2021/06/01 09:37:18;;;;;;;2.23;0.87;;;28.70;32.00;;;;;;4978776;28;20283;-82
2021/06/01 09:40:07;;;;;;;2.23;1.30;;;28.90;31.60;;;;;;4994879;28;20236;-83
2021/06/01 09:42:37;;;;;;;3.80;1.23;;;29.10;31.30;;;;;;4995288;28;20201;-82
2021/06/01 09:45:06;;;;;;;1.30;0.87;;;29.20;31.10;;;;;;4987185;28;20687;-81
2021/06/01 09:47:55;;;;;;;1.40;1.30;;;29.30;30.80;;;;;;4979035;28;20283;-81
2021/06/01 09:50:40;;;;;;;1.20;1.00;;;29.20;30.60;;;;;;4995048;28;20189;-82
2021/06/01 09:53:18;;;;;;;1.43;0.93;;;29.20;32.60;;;;;;4983934;28;20232;-82
2021/06/01 09:55:47;;;;;;;0.90;0.90;;;29.20;31.90;;;;;;4994843;28;20240;-84
2021/06/01 09:58:26;;;;;;;1.47;0.90;;;29.30;31.50;;;;;;4978927;28;20213;-82
2021/06/01 10:00:55;;;;;;;5.70;1.03;;;29.10;30.30;;;;;;4978352;28;20308;-82
2021/06/01 10:03:25;;;;;;;2.60;1.10;;;28.90;31.30;;;;;;4994785;28;20248;-83
2021/06/01 10:05:56;;;;;;;1.60;1.10;;;28.90;31.40;;;;;;5015536;28;20234;-83
2021/06/01 10:08:25;;;;;;;4.57;1.30;;;29.00;31.60;;;;;;5018453;28;20195;-82
2021/06/01 10:11:02;;;;;;;3.93;1.10;;;29.10;31.10;;;;;;5018277;28;20211;-83
2021/06/01 10:13:35;;;;;;;2.30;1.10;;;29.40;31.10;;;;;;5018386;28;20245;-82
2021/06/01 10:16:03;;;;;;;1.40;1.30;;;29.50;31.20;;;;;;5010397;28;20298;-83
2021/06/01 10:18:32;;;;;;;1.73;1.10;;;29.70;30.80;;;;;;5010539;28;20301;-83
2021/06/01 10:21:04;;;;;;;1.40;1.30;;;29.70;30.40;;;;;;5018181;28;20219;-84
2021/06/01 10:23:36;;;;;;;4.17;1.53;;;29.60;30.20;;;;;;5038710;28;20288;-83
2021/06/01 10:26:06;;;;;;;1.57;1.10;;;29.50;31.40;;;;;;5018796;28;20220;-83
2021/06/01 10:28:39;;;;;;;1.40;1.30;;;29.50;31.40;;;;;;5035829;28;20258;-84
2021/06/01 10:31:11;;;;;;;1.23;1.13;;;29.50;30.80;;;;;;5040297;28;20611;-84
2021/06/01 10:33:44;;;;;;;5.30;1.47;;;29.30;31.30;;;;;;5023312;28;20218;-83
2021/06/01 10:44:51;;;;;;;3.73;1.20;;;29.30;31.00;;;;;;5060196;28;20233;-83
2021/06/01 10:50:27;;;;;;;1.47;1.30;;;29.60;30.20;;;;;;5040245;28;20272;-83
2021/06/01 10:53:10;;;;;;;1.80;0.80;;;29.70;29.20;;;;;;5022440;28;20203;-83
2021/06/01 10:56:07;;;;;;;1.80;1.03;;;29.60;29.00;;;;;;5022691;28;20631;-84
2021/06/01 10:58:36;;;;;;;1.90;1.00;;;29.70;29.70;;;;;;5021511;28;20294;-83
2021/06/01 11:04:12;;;;;;;1.50;1.13;;;29.90;30.50;;;;;;5039886;28;20231;-84
2021/06/01 11:06:53;;;;;;;1.30;1.03;;;30.00;29.90;;;;;;5008068;28;20228;-83
2021/06/01 11:09:33;;;;;;;2.70;1.20;;;30.10;28.20;;;;;;5005156;28;20208;-83
2021/06/01 11:12:23;;;;;;;2.17;1.03;;;29.80;27.70;;;;;;5045627;28;20260;-84
2021/06/01 11:14:54;;;;;;;4.03;1.30;;;29.50;29.40;;;;;;5032038;28;20219;-83
2021/06/01 11:17:41;;;;;;;3.23;1.40;;;29.20;30.60;;;;;;5034587;28;20241;-84
2021/06/01 11:23:10;;;;;;;1.97;1.00;;;29.00;30.00;;;;;;5056945;28;20218;-85
2021/06/01 11:34:00;;;;;;;2.57;1.30;;;29.20;30.00;;;;;;5043028;28;20222;-83
2021/06/01 11:36:39;;;;;;;1.20;1.07;;;29.30;29.70;;;;;;5026159;28;20225;-83
2021/06/01 11:39:52;;;;;;;0.93;0.93;;;29.30;28.60;;;;;;5058930;28;20226;-83
2021/06/01 11:45:01;;;;;;;0.90;0.90;;;29.20;31.00;;;;;;5035479;28;20226;-85
2021/06/01 11:47:32;;;;;;;2.20;1.23;;;29.30;30.30;;;;;;5021562;28;20272;-85
2021/06/01 11:52:59;;;;;;;1.83;1.20;;;28.70;29.80;;;;;;5039000;28;20211;-85
2021/06/01 11:55:26;;;;;;;1.60;1.50;;;28.60;30.80;;;;;;5025566;28;20211;-83
2021/06/01 12:04:08;;;;;;;8.13;1.70;;;28.60;29.90;;;;;;5047622;28;20569;-85
2021/06/01 12:12:56;;;;;;;2.27;1.20;;;28.10;31.70;;;;;;5077828;28;20610;-85
2021/06/01 12:18:24;;;;;;;1.10;1.00;;;28.20;31.20;;;;;;5037820;28;20196;-86
2021/06/01 12:20:53;;;;;;;2.17;1.30;;;28.30;31.30;;;;;;5028875;28;20214;-84
2021/06/01 12:23:32;;;;;;;1.03;0.93;;;28.20;30.40;;;;;;5049127;28;20230;-82
2021/06/01 12:26:12;;;;;;;2.30;1.00;;;28.30;30.40;;;;;;5046620;28;20666;-85
2021/06/01 12:32:18;;;;;;;3.53;1.47;;;28.50;29.40;;;;;;5072010;28;20587;-83
2021/06/01 12:43:37;;;;;;;1.97;1.10;;;28.70;29.80;;;;;;5057868;28;20611;-83
2021/06/01 12:46:27;;;;;;;2.50;1.23;;;28.80;30.40;;;;;;5027789;28;20237;-85
2021/06/01 13:31:57;;;;;;;1.73;1.27;;;28.90;31.60;;;;;;5076294;28;20205;-85
2021/06/01 13:39:59;;;;;;;2.10;1.30;;;28.80;31.80;;;;;;5036632;28;20215;-84
2021/06/01 13:48:39;;;;;;;4.33;2.20;;;28.20;32.10;;;;;;5059428;28;20296;-87
2021/06/01 13:56:08;;;;;;;1.67;1.20;;;27.70;33.10;;;;;;5059563;28;20218;-83
2021/06/01 15:29:36;;;;;;;3.53;1.63;;;26.40;42.90;;;;;;5033218;28;20220;-85
2021/06/01 16:22:39;;;;;;;5.13;1.60;;;25.50;44.30;;;;;;5018942;28;20258;-82
2021/06/01 16:32:25;;;;;;;3.10;1.63;;;25.30;45.40;;;;;;5018726;28;20226;-83
2021/06/01 16:43:54;;;;;;;4.00;1.97;;;24.80;45.60;;;;;;5043317;28;20214;-83
2021/06/01 17:06:05;;;;;;;3.60;2.23;;;24.30;46.90;;;;;;4993557;28;20302;-84
2021/06/01 17:11:42;;;;;;;2.93;1.90;;;24.10;47.30;;;;;;4957279;29;20217;-82
2021/06/01 17:14:12;;;;;;;2.97;1.90;;;24.10;47.40;;;;;;4957449;29;20261;-84
2021/06/01 17:16:46;;;;;;;4.40;4.00;;;24.00;46.90;;;;;;4950291;29;20602;-84
2021/06/01 17:35:17;;;;;;;6.87;2.03;;;23.70;47.90;;;;;;4986837;28;20299;-82
2021/06/01 17:37:49;;;;;;;5.77;1.60;;;23.60;48.00;;;;;;4993215;28;20303;-84
2021/06/01 17:40:20;;;;;;;4.77;2.50;;;23.60;48.10;;;;;;4991193;28;20220;-84
2021/06/01 17:43:05;;;;;;;2.00;1.80;;;23.50;47.80;;;;;;4976685;28;20232;-83
2021/06/01 17:45:36;;;;;;;3.67;2.23;;;23.40;47.90;;;;;;4987244;28;20221;-84
2021/06/01 17:48:14;;;;;;;2.17;1.93;;;23.30;48.10;;;;;;4970741;28;20250;-82
2021/06/01 17:50:42;;;;;;;1.73;1.63;;;23.30;48.50;;;;;;5048661;28;20622;-82
2021/06/01 17:53:14;;;;;;;2.00;1.90;;;23.20;48.40;;;;;;5032612;28;20226;-84
2021/06/01 17:55:50;;;;;;;3.83;1.87;;;23.20;48.60;;;;;;5025389;28;20282;-82
2021/06/01 17:58:25;;;;;;;7.70;1.80;;;23.10;48.80;;;;;;5035562;28;20335;-83
2021/06/01 18:00:53;;;;;;;2.60;1.83;;;23.00;49.20;;;;;;5020618;28;20241;-84
2021/06/01 18:03:25;;;;;;;2.27;1.90;;;23.00;49.20;;;;;;5035160;28;20566;-83
2021/06/01 18:05:53;;;;;;;2.03;1.80;;;22.90;49.40;;;;;;5046518;28;20263;-81
2021/06/01 18:08:35;;;;;;;4.90;1.67;;;22.90;49.30;;;;;;5077788;28;20268;-83
2021/06/01 18:11:43;;;;;;;2.90;2.00;;;22.80;49.40;;;;;;5038356;28;20290;-81
2021/06/01 19:24:38;;;;;;;4.03;2.97;;;20.70;56.20;;;;;;5037949;28;20226;-84
2021/06/01 19:27:29;;;;;;;4.67;2.93;;;20.50;56.70;;;;;;5059968;28;20229;-84
2021/06/01 19:49:55;;;;;;;2.50;2.13;;;20.00;58.50;;;;;;5059801;28;20201;-84
2021/06/01 19:52:19;;;;;;;5.30;2.47;;;19.90;58.40;;;;;;5061597;28;20205;-85
2021/06/01 19:54:52;;;;;;;4.20;2.67;;;19.90;58.80;;;;;;5058859;28;20557;-84
2021/06/01 19:57:22;;;;;;;2.57;2.00;;;19.80;58.80;;;;;;5041970;28;20218;-83
2021/06/01 19:59:54;;;;;;;6.97;2.33;;;19.80;59.30;;;;;;5041498;28;20242;-84
2021/06/01 20:02:24;;;;;;;6.87;2.43;;;19.70;59.60;;;;;;5071556;28;20640;-84
2021/06/01 20:05:03;;;;;;;4.63;2.60;;;19.60;59.90;;;;;;5033644;28;20658;-83
2021/06/01 20:07:31;;;;;;;6.73;2.10;;;19.60;60.10;;;;;;5020473;28;20298;-83
2021/06/01 20:09:59;;;;;;;2.90;2.70;;;19.50;60.40;;;;;;5026421;28;20238;-83